Terminal Aerodrome Forecast
Issued by NWS Melbourne, FL

Home | Current Version | Previous Version | Text Only | Print | Product List | Glossary On
Versions: 1 2 3 4 5 6 7 8 9 10 11 12 13 14 15 16 17 18 19 20 21 22 23 24 25 26 27 28 29 30
000
FTUS42 KMLB 062321
TAFMCO
TAF
KMCO 062321Z 0700/0724 10006KT P6SM VCSH FEW010 BKN040 BKN100
     FM070300 14003KT P6SM FEW040 SCT100 BKN250
     FM070600 16003KT P6SM SCT250
     FM071400 18004KT P6SM FEW030 SCT250
     FM072000 13008KT P6SM VCTS SCT040CB BKN060=

USA.gov is the U.S. government's official web portal to all federal, state and local government web resources and services.